sensor_id;sensor_type;location;lat;lon;timestamp;P1;durP1;ratioP1;P2;durP2;ratioP2
25045;SDS011;13044;49.304;12.840;2022-07-29T00:00:02;3.15;;;2.05;;
25045;SDS011;13044;49.304;12.840;2022-07-29T00:02:32;4.38;;;2.30;;
25045;SDS011;13044;49.304;12.840;2022-07-29T00:04:59;8.88;;;2.53;;
25045;SDS011;13044;49.304;12.840;2022-07-29T00:07:26;8.07;;;2.20;;
25045;SDS011;13044;49.304;12.840;2022-07-29T00:09:53;8.13;;;2.10;;
25045;SDS011;13044;49.304;12.840;2022-07-29T00:12:21;4.22;;;2.05;;
25045;SDS011;13044;49.304;12.840;2022-07-29T00:14:52;6.25;;;2.75;;
25045;SDS011;13044;49.304;12.840;2022-07-29T00:17:21;8.27;;;2.20;;
25045;SDS011;13044;49.304;12.840;2022-07-29T00:19:49;4.55;;;2.00;;
25045;SDS011;13044;49.304;12.840;2022-07-29T00:22:16;5.05;;;2.45;;
25045;SDS011;13044;49.304;12.840;2022-07-29T00:24:43;2.90;;;2.20;;
25045;SDS011;13044;49.304;12.840;2022-07-29T00:27:10;7.38;;;2.15;;
25045;SDS011;13044;49.304;12.840;2022-07-29T00:29:37;8.38;;;2.30;;
25045;SDS011;13044;49.304;12.840;2022-07-29T00:32:04;4.20;;;2.20;;
25045;SDS011;13044;49.304;12.840;2022-07-29T00:34:31;5.25;;;2.30;;
25045;SDS011;13044;49.304;12.840;2022-07-29T00:37:17;3.97;;;2.30;;
25045;SDS011;13044;49.304;12.840;2022-07-29T00:39:43;3.83;;;2.10;;
25045;SDS011;13044;49.304;12.840;2022-07-29T00:42:10;2.80;;;2.20;;
25045;SDS011;13044;49.304;12.840;2022-07-29T00:44:38;7.30;;;2.00;;
25045;SDS011;13044;49.304;12.840;2022-07-29T00:47:08;4.88;;;2.00;;
25045;SDS011;13044;49.304;12.840;2022-07-29T00:49:37;7.65;;;2.30;;
25045;SDS011;13044;49.304;12.840;2022-07-29T00:52:07;6.05;;;2.10;;
25045;SDS011;13044;49.304;12.840;2022-07-29T00:54:36;2.65;;;2.03;;
25045;SDS011;13044;49.304;12.840;2022-07-29T00:57:10;7.53;;;2.38;;
25045;SDS011;13044;49.304;12.840;2022-07-29T00:59:38;5.25;;;2.47;;
25045;SDS011;13044;49.304;12.840;2022-07-29T01:02:05;4.28;;;2.40;;
25045;SDS011;13044;49.304;12.840;2022-07-29T01:04:32;6.07;;;2.08;;
25045;SDS011;13044;49.304;12.840;2022-07-29T01:07:03;6.07;;;2.70;;
25045;SDS011;13044;49.304;12.840;2022-07-29T01:09:31;8.15;;;2.50;;
25045;SDS011;13044;49.304;12.840;2022-07-29T01:12:10;7.28;;;2.45;;
25045;SDS011;13044;49.304;12.840;2022-07-29T01:14:40;7.53;;;2.40;;
25045;SDS011;13044;49.304;12.840;2022-07-29T01:17:12;8.27;;;2.70;;
25045;SDS011;13044;49.304;12.840;2022-07-29T01:20:01;11.60;;;2.38;;
25045;SDS011;13044;49.304;12.840;2022-07-29T01:22:46;9.48;;;2.38;;
25045;SDS011;13044;49.304;12.840;2022-07-29T01:28:52;7.63;;;2.30;;
25045;SDS011;13044;49.304;12.840;2022-07-29T01:31:45;11.38;;;2.40;;
25045;SDS011;13044;49.304;12.840;2022-07-29T01:34:38;10.43;;;2.47;;
25045;SDS011;13044;49.304;12.840;2022-07-29T01:37:18;7.50;;;2.53;;
25045;SDS011;13044;49.304;12.840;2022-07-29T01:40:03;7.53;;;2.55;;
25045;SDS011;13044;49.304;12.840;2022-07-29T01:42:43;6.78;;;2.40;;
25045;SDS011;13044;49.304;12.840;2022-07-29T01:45:20;5.75;;;2.10;;
25045;SDS011;13044;49.304;12.840;2022-07-29T01:50:49;7.40;;;2.47;;
25045;SDS011;13044;49.304;12.840;2022-07-29T01:53:28;4.53;;;2.20;;
25045;SDS011;13044;49.304;12.840;2022-07-29T01:56:03;4.00;;;2.22;;
25045;SDS011;13044;49.304;12.840;2022-07-29T01:58:33;9.65;;;2.50;;
25045;SDS011;13044;49.304;12.840;2022-07-29T02:01:02;6.18;;;2.10;;
25045;SDS011;13044;49.304;12.840;2022-07-29T02:03:29;4.03;;;2.08;;
25045;SDS011;13044;49.304;12.840;2022-07-29T02:05:59;8.70;;;2.35;;
25045;SDS011;13044;49.304;12.840;2022-07-29T02:08:29;6.68;;;2.65;;
25045;SDS011;13044;49.304;12.840;2022-07-29T02:10:59;9.15;;;2.55;;
25045;SDS011;13044;49.304;12.840;2022-07-29T02:13:27;7.80;;;2.28;;
25045;SDS011;13044;49.304;12.840;2022-07-29T02:15:57;4.90;;;2.53;;
25045;SDS011;13044;49.304;12.840;2022-07-29T02:18:25;6.82;;;2.33;;
25045;SDS011;13044;49.304;12.840;2022-07-29T02:20:57;6.75;;;2.25;;
25045;SDS011;13044;49.304;12.840;2022-07-29T02:23:25;4.43;;;2.17;;
25045;SDS011;13044;49.304;12.840;2022-07-29T02:25:55;6.72;;;2.38;;
25045;SDS011;13044;49.304;12.840;2022-07-29T02:28:23;5.78;;;2.78;;
25045;SDS011;13044;49.304;12.840;2022-07-29T02:30:57;5.80;;;2.63;;
25045;SDS011;13044;49.304;12.840;2022-07-29T02:33:27;3.97;;;2.20;;
25045;SDS011;13044;49.304;12.840;2022-07-29T02:35:56;4.90;;;2.45;;
25045;SDS011;13044;49.304;12.840;2022-07-29T02:38:25;7.45;;;2.42;;
25045;SDS011;13044;49.304;12.840;2022-07-29T02:41:15;5.15;;;2.60;;
25045;SDS011;13044;49.304;12.840;2022-07-29T02:43:57;6.20;;;2.53;;
25045;SDS011;13044;49.304;12.840;2022-07-29T02:46:32;3.97;;;2.20;;
25045;SDS011;13044;49.304;12.840;2022-07-29T02:52:04;4.40;;;2.20;;
25045;SDS011;13044;49.304;12.840;2022-07-29T02:54:41;3.65;;;2.20;;
25045;SDS011;13044;49.304;12.840;2022-07-29T02:57:14;12.52;;;2.30;;
25045;SDS011;13044;49.304;12.840;2022-07-29T02:59:50;3.03;;;2.03;;
25045;SDS011;13044;49.304;12.840;2022-07-29T03:02:19;2.42;;;1.90;;
25045;SDS011;13044;49.304;12.840;2022-07-29T03:04:47;6.30;;;2.15;;
25045;SDS011;13044;49.304;12.840;2022-07-29T03:07:18;6.00;;;2.65;;
25045;SDS011;13044;49.304;12.840;2022-07-29T03:09:46;8.93;;;2.83;;
25045;SDS011;13044;49.304;12.840;2022-07-29T03:12:15;8.20;;;3.13;;
25045;SDS011;13044;49.304;12.840;2022-07-29T03:14:43;5.28;;;3.15;;
25045;SDS011;13044;49.304;12.840;2022-07-29T03:17:10;6.57;;;2.92;;
25045;SDS011;13044;49.304;12.840;2022-07-29T03:19:37;4.28;;;2.70;;
25045;SDS011;13044;49.304;12.840;2022-07-29T03:22:05;5.70;;;2.20;;
25045;SDS011;13044;49.304;12.840;2022-07-29T03:24:34;7.22;;;2.20;;
25045;SDS011;13044;49.304;12.840;2022-07-29T03:27:03;9.85;;;2.60;;
25045;SDS011;13044;49.304;12.840;2022-07-29T03:29:31;5.63;;;2.55;;
25045;SDS011;13044;49.304;12.840;2022-07-29T03:32:01;3.58;;;2.20;;
25045;SDS011;13044;49.304;12.840;2022-07-29T03:34:33;8.18;;;1.95;;
25045;SDS011;13044;49.304;12.840;2022-07-29T03:37:01;7.15;;;2.13;;
25045;SDS011;13044;49.304;12.840;2022-07-29T03:39:29;4.40;;;2.15;;
25045;SDS011;13044;49.304;12.840;2022-07-29T03:42:03;5.93;;;2.00;;
25045;SDS011;13044;49.304;12.840;2022-07-29T03:44:34;5.25;;;2.53;;
25045;SDS011;13044;49.304;12.840;2022-07-29T03:47:02;6.05;;;3.00;;
25045;SDS011;13044;49.304;12.840;2022-07-29T03:49:32;4.55;;;2.53;;
25045;SDS011;13044;49.304;12.840;2022-07-29T03:52:03;5.10;;;2.35;;
25045;SDS011;13044;49.304;12.840;2022-07-29T03:54:31;5.47;;;2.45;;
25045;SDS011;13044;49.304;12.840;2022-07-29T03:57:02;9.27;;;2.38;;
25045;SDS011;13044;49.304;12.840;2022-07-29T04:02:02;5.65;;;1.92;;
25045;SDS011;13044;49.304;12.840;2022-07-29T04:04:35;5.85;;;2.17;;
25045;SDS011;13044;49.304;12.840;2022-07-29T04:07:03;3.72;;;2.22;;
25045;SDS011;13044;49.304;12.840;2022-07-29T04:09:30;8.15;;;2.42;;
25045;SDS011;13044;49.304;12.840;2022-07-29T04:11:57;2.97;;;2.20;;
25045;SDS011;13044;49.304;12.840;2022-07-29T04:14:30;3.88;;;2.33;;
25045;SDS011;13044;49.304;12.840;2022-07-29T04:16:59;7.95;;;2.70;;
25045;SDS011;13044;49.304;12.840;2022-07-29T04:19:30;5.15;;;2.65;;
25045;SDS011;13044;49.304;12.840;2022-07-29T04:21:58;8.23;;;2.17;;
25045;SDS011;13044;49.304;12.840;2022-07-29T04:24:26;6.93;;;2.30;;
25045;SDS011;13044;49.304;12.840;2022-07-29T04:26:54;9.85;;;2.67;;
25045;SDS011;13044;49.304;12.840;2022-07-29T04:29:21;7.28;;;2.47;;
25045;SDS011;13044;49.304;12.840;2022-07-29T04:31:48;4.28;;;2.15;;
25045;SDS011;13044;49.304;12.840;2022-07-29T04:34:15;6.43;;;2.30;;
25045;SDS011;13044;49.304;12.840;2022-07-29T04:36:42;4.68;;;2.28;;
25045;SDS011;13044;49.304;12.840;2022-07-29T04:39:09;7.60;;;2.28;;
25045;SDS011;13044;49.304;12.840;2022-07-29T04:41:36;8.77;;;2.60;;
25045;SDS011;13044;49.304;12.840;2022-07-29T04:44:03;4.93;;;2.03;;
25045;SDS011;13044;49.304;12.840;2022-07-29T04:46:37;7.32;;;2.03;;
25045;SDS011;13044;49.304;12.840;2022-07-29T04:49:04;5.38;;;2.05;;
25045;SDS011;13044;49.304;12.840;2022-07-29T04:51:31;7.25;;;2.30;;
25045;SDS011;13044;49.304;12.840;2022-07-29T04:53:58;6.50;;;2.28;;
25045;SDS011;13044;49.304;12.840;2022-07-29T04:56:25;5.90;;;2.20;;
25045;SDS011;13044;49.304;12.840;2022-07-29T04:58:53;12.57;;;2.55;;
25045;SDS011;13044;49.304;12.840;2022-07-29T05:01:20;7.18;;;2.08;;
25045;SDS011;13044;49.304;12.840;2022-07-29T05:03:46;6.38;;;2.38;;
25045;SDS011;13044;49.304;12.840;2022-07-29T05:06:13;6.07;;;2.20;;
25045;SDS011;13044;49.304;12.840;2022-07-29T05:08:40;4.22;;;2.22;;
25045;SDS011;13044;49.304;12.840;2022-07-29T05:11:07;9.82;;;2.30;;
25045;SDS011;13044;49.304;12.840;2022-07-29T05:13:37;5.43;;;2.30;;
25045;SDS011;13044;49.304;12.840;2022-07-29T05:16:11;3.40;;;2.17;;
25045;SDS011;13044;49.304;12.840;2022-07-29T05:18:40;8.00;;;2.80;;
25045;SDS011;13044;49.304;12.840;2022-07-29T05:21:07;7.47;;;2.20;;
25045;SDS011;13044;49.304;12.840;2022-07-29T05:23:34;9.82;;;2.28;;
25045;SDS011;13044;49.304;12.840;2022-07-29T05:26:01;7.47;;;2.20;;
25045;SDS011;13044;49.304;12.840;2022-07-29T05:28:28;4.35;;;2.20;;
25045;SDS011;13044;49.304;12.840;2022-07-29T05:30:59;6.68;;;2.20;;
25045;SDS011;13044;49.304;12.840;2022-07-29T05:33:26;12.85;;;2.17;;
25045;SDS011;13044;49.304;12.840;2022-07-29T05:36:02;10.57;;;2.35;;
25045;SDS011;13044;49.304;12.840;2022-07-29T05:38:33;7.35;;;2.08;;
25045;SDS011;13044;49.304;12.840;2022-07-29T05:41:03;7.47;;;2.15;;
25045;SDS011;13044;49.304;12.840;2022-07-29T05:43:31;6.22;;;2.30;;
25045;SDS011;13044;49.304;12.840;2022-07-29T05:45:58;9.35;;;2.30;;
25045;SDS011;13044;49.304;12.840;2022-07-29T05:48:26;7.28;;;2.35;;
25045;SDS011;13044;49.304;12.840;2022-07-29T05:50:53;6.18;;;2.58;;
25045;SDS011;13044;49.304;12.840;2022-07-29T05:53:21;6.25;;;2.20;;
25045;SDS011;13044;49.304;12.840;2022-07-29T05:55:48;5.25;;;2.03;;
25045;SDS011;13044;49.304;12.840;2022-07-29T05:58:16;5.32;;;1.85;;
25045;SDS011;13044;49.304;12.840;2022-07-29T06:00:43;8.23;;;2.45;;
25045;SDS011;13044;49.304;12.840;2022-07-29T06:03:11;8.88;;;2.00;;
25045;SDS011;13044;49.304;12.840;2022-07-29T06:05:38;4.45;;;2.30;;
25045;SDS011;13044;49.304;12.840;2022-07-29T06:08:05;5.28;;;2.20;;
25045;SDS011;13044;49.304;12.840;2022-07-29T06:10:34;5.10;;;1.90;;
25045;SDS011;13044;49.304;12.840;2022-07-29T06:13:01;5.60;;;2.40;;
25045;SDS011;13044;49.304;12.840;2022-07-29T06:15:29;8.60;;;2.53;;
25045;SDS011;13044;49.304;12.840;2022-07-29T06:17:56;6.43;;;2.55;;
25045;SDS011;13044;49.304;12.840;2022-07-29T06:20:25;7.05;;;2.20;;
25045;SDS011;13044;49.304;12.840;2022-07-29T06:22:53;10.95;;;2.58;;
25045;SDS011;13044;49.304;12.840;2022-07-29T06:25:19;6.50;;;1.98;;
25045;SDS011;13044;49.304;12.840;2022-07-29T06:27:46;6.38;;;2.40;;
25045;SDS011;13044;49.304;12.840;2022-07-29T06:30:13;10.50;;;2.60;;
25045;SDS011;13044;49.304;12.840;2022-07-29T06:32:40;6.88;;;2.13;;
25045;SDS011;13044;49.304;12.840;2022-07-29T06:35:08;6.75;;;2.22;;
25045;SDS011;13044;49.304;12.840;2022-07-29T06:37:55;6.40;;;2.55;;
25045;SDS011;13044;49.304;12.840;2022-07-29T06:40:25;5.95;;;2.50;;
25045;SDS011;13044;49.304;12.840;2022-07-29T06:43:10;8.35;;;2.30;;
25045;SDS011;13044;49.304;12.840;2022-07-29T06:45:37;10.23;;;2.55;;
25045;SDS011;13044;49.304;12.840;2022-07-29T06:48:07;8.25;;;2.50;;
25045;SDS011;13044;49.304;12.840;2022-07-29T06:50:35;9.75;;;2.85;;
25045;SDS011;13044;49.304;12.840;2022-07-29T06:53:03;7.72;;;2.55;;
25045;SDS011;13044;49.304;12.840;2022-07-29T06:55:30;10.43;;;2.67;;
25045;SDS011;13044;49.304;12.840;2022-07-29T06:57:57;3.75;;;2.40;;
25045;SDS011;13044;49.304;12.840;2022-07-29T07:00:24;5.20;;;2.28;;
25045;SDS011;13044;49.304;12.840;2022-07-29T07:02:51;10.18;;;2.95;;
25045;SDS011;13044;49.304;12.840;2022-07-29T07:05:18;6.82;;;2.65;;
25045;SDS011;13044;49.304;12.840;2022-07-29T07:07:45;8.90;;;2.65;;
25045;SDS011;13044;49.304;12.840;2022-07-29T07:10:11;9.30;;;2.53;;
25045;SDS011;13044;49.304;12.840;2022-07-29T07:12:38;7.18;;;2.65;;
25045;SDS011;13044;49.304;12.840;2022-07-29T07:15:05;5.45;;;2.78;;
25045;SDS011;13044;49.304;12.840;2022-07-29T07:17:33;6.97;;;2.72;;
25045;SDS011;13044;49.304;12.840;2022-07-29T07:20:00;4.85;;;2.90;;
25045;SDS011;13044;49.304;12.840;2022-07-29T07:22:26;9.02;;;2.53;;
25045;SDS011;13044;49.304;12.840;2022-07-29T07:24:53;6.65;;;2.60;;
25045;SDS011;13044;49.304;12.840;2022-07-29T07:27:20;8.73;;;2.72;;
25045;SDS011;13044;49.304;12.840;2022-07-29T07:29:50;6.20;;;2.60;;
25045;SDS011;13044;49.304;12.840;2022-07-29T07:32:17;8.95;;;2.95;;
25045;SDS011;13044;49.304;12.840;2022-07-29T07:34:44;8.02;;;3.10;;
25045;SDS011;13044;49.304;12.840;2022-07-29T07:37:11;7.13;;;2.85;;
25045;SDS011;13044;49.304;12.840;2022-07-29T07:39:38;4.35;;;2.38;;
25045;SDS011;13044;49.304;12.840;2022-07-29T07:42:05;11.82;;;3.03;;
25045;SDS011;13044;49.304;12.840;2022-07-29T07:44:32;8.95;;;2.85;;
25045;SDS011;13044;49.304;12.840;2022-07-29T07:47:19;10.13;;;2.97;;
25045;SDS011;13044;49.304;12.840;2022-07-29T07:49:47;7.43;;;2.75;;
25045;SDS011;13044;49.304;12.840;2022-07-29T07:52:18;8.65;;;3.25;;
25045;SDS011;13044;49.304;12.840;2022-07-29T07:54:47;13.45;;;3.90;;
25045;SDS011;13044;49.304;12.840;2022-07-29T07:57:14;11.52;;;3.63;;
25045;SDS011;13044;49.304;12.840;2022-07-29T07:59:42;9.10;;;3.55;;
25045;SDS011;13044;49.304;12.840;2022-07-29T08:02:09;15.65;;;4.32;;
25045;SDS011;13044;49.304;12.840;2022-07-29T08:04:36;9.50;;;4.03;;
25045;SDS011;13044;49.304;12.840;2022-07-29T08:07:06;13.00;;;4.88;;
25045;SDS011;13044;49.304;12.840;2022-07-29T08:09:35;14.10;;;5.00;;
25045;SDS011;13044;49.304;12.840;2022-07-29T08:12:03;9.93;;;4.20;;
25045;SDS011;13044;49.304;12.840;2022-07-29T08:14:32;9.02;;;4.20;;
25045;SDS011;13044;49.304;12.840;2022-07-29T08:16:59;13.73;;;5.05;;
25045;SDS011;13044;49.304;12.840;2022-07-29T08:19:26;14.23;;;5.88;;
25045;SDS011;13044;49.304;12.840;2022-07-29T08:21:53;12.63;;;4.60;;
25045;SDS011;13044;49.304;12.840;2022-07-29T08:24:21;10.10;;;4.40;;
25045;SDS011;13044;49.304;12.840;2022-07-29T08:27:07;12.57;;;5.80;;
25045;SDS011;13044;49.304;12.840;2022-07-29T08:29:54;10.27;;;5.93;;
25045;SDS011;13044;49.304;12.840;2022-07-29T08:32:22;16.63;;;7.00;;
25045;SDS011;13044;49.304;12.840;2022-07-29T08:35:08;15.57;;;8.13;;
25045;SDS011;13044;49.304;12.840;2022-07-29T08:37:35;14.98;;;6.80;;
25045;SDS011;13044;49.304;12.840;2022-07-29T08:40:03;12.32;;;6.07;;
25045;SDS011;13044;49.304;12.840;2022-07-29T08:42:32;10.65;;;6.97;;
25045;SDS011;13044;49.304;12.840;2022-07-29T08:44:59;13.18;;;6.82;;
25045;SDS011;13044;49.304;12.840;2022-07-29T08:47:26;14.63;;;7.32;;
25045;SDS011;13044;49.304;12.840;2022-07-29T08:49:54;16.02;;;7.78;;
25045;SDS011;13044;49.304;12.840;2022-07-29T08:52:21;13.65;;;6.07;;
25045;SDS011;13044;49.304;12.840;2022-07-29T08:54:52;9.98;;;5.85;;
25045;SDS011;13044;49.304;12.840;2022-07-29T08:57:21;8.80;;;5.60;;
25045;SDS011;13044;49.304;12.840;2022-07-29T08:59:49;13.57;;;6.50;;
25045;SDS011;13044;49.304;12.840;2022-07-29T09:02:19;10.82;;;5.57;;
25045;SDS011;13044;49.304;12.840;2022-07-29T09:04:48;17.25;;;7.30;;
25045;SDS011;13044;49.304;12.840;2022-07-29T09:07:16;9.55;;;6.18;;
25045;SDS011;13044;49.304;12.840;2022-07-29T09:09:45;10.32;;;6.55;;
25045;SDS011;13044;49.304;12.840;2022-07-29T09:12:12;10.45;;;7.00;;
25045;SDS011;13044;49.304;12.840;2022-07-29T09:14:55;10.80;;;7.65;;
25045;SDS011;13044;49.304;12.840;2022-07-29T09:17:41;10.52;;;7.20;;
25045;SDS011;13044;49.304;12.840;2022-07-29T09:20:14;17.30;;;6.47;;
25045;SDS011;13044;49.304;12.840;2022-07-29T09:22:44;10.43;;;6.03;;
25045;SDS011;13044;49.304;12.840;2022-07-29T09:25:34;11.32;;;7.63;;
25045;SDS011;13044;49.304;12.840;2022-07-29T09:28:09;11.68;;;7.00;;
25045;SDS011;13044;49.304;12.840;2022-07-29T09:30:54;16.02;;;8.13;;
25045;SDS011;13044;49.304;12.840;2022-07-29T09:33:30;11.10;;;7.80;;
25045;SDS011;13044;49.304;12.840;2022-07-29T09:36:06;18.00;;;8.05;;
25045;SDS011;13044;49.304;12.840;2022-07-29T09:38:35;10.38;;;7.90;;
25045;SDS011;13044;49.304;12.840;2022-07-29T09:41:03;15.77;;;8.40;;
25045;SDS011;13044;49.304;12.840;2022-07-29T09:43:32;13.02;;;8.32;;
25045;SDS011;13044;49.304;12.840;2022-07-29T09:46:09;13.73;;;7.80;;
25045;SDS011;13044;49.304;12.840;2022-07-29T09:48:38;12.35;;;7.40;;
25045;SDS011;13044;49.304;12.840;2022-07-29T09:51:05;13.23;;;8.63;;
25045;SDS011;13044;49.304;12.840;2022-07-29T09:54:25;15.38;;;8.85;;
25045;SDS011;13044;49.304;12.840;2022-07-29T09:56:54;13.95;;;8.05;;
25045;SDS011;13044;49.304;12.840;2022-07-29T09:59:22;15.77;;;9.45;;
25045;SDS011;13044;49.304;12.840;2022-07-29T10:01:52;10.85;;;8.65;;
25045;SDS011;13044;49.304;12.840;2022-07-29T10:06:55;12.25;;;8.70;;
25045;SDS011;13044;49.304;12.840;2022-07-29T10:09:30;11.75;;;7.38;;
25045;SDS011;13044;49.304;12.840;2022-07-29T10:12:11;11.77;;;6.65;;
25045;SDS011;13044;49.304;12.840;2022-07-29T10:14:41;12.02;;;7.68;;
25045;SDS011;13044;49.304;12.840;2022-07-29T10:17:09;8.07;;;6.00;;
25045;SDS011;13044;49.304;12.840;2022-07-29T10:19:37;14.23;;;6.53;;
25045;SDS011;13044;49.304;12.840;2022-07-29T10:22:06;14.02;;;7.00;;
25045;SDS011;13044;49.304;12.840;2022-07-29T10:24:36;10.07;;;6.32;;
25045;SDS011;13044;49.304;12.840;2022-07-29T10:27:05;9.00;;;6.20;;
25045;SDS011;13044;49.304;12.840;2022-07-29T10:29:34;12.98;;;7.40;;
25045;SDS011;13044;49.304;12.840;2022-07-29T10:38:51;12.88;;;6.28;;
25045;SDS011;13044;49.304;12.840;2022-07-29T10:41:51;10.13;;;5.50;;
25045;SDS011;13044;49.304;12.840;2022-07-29T10:45:10;13.05;;;7.00;;
25045;SDS011;13044;49.304;12.840;2022-07-29T10:47:37;10.52;;;6.13;;
25045;SDS011;13044;49.304;12.840;2022-07-29T10:50:05;16.13;;;5.78;;
25045;SDS011;13044;49.304;12.840;2022-07-29T10:55:35;10.80;;;6.10;;
25045;SDS011;13044;49.304;12.840;2022-07-29T10:58:13;10.63;;;5.63;;
25045;SDS011;13044;49.304;12.840;2022-07-29T11:00:46;10.95;;;6.00;;
25045;SDS011;13044;49.304;12.840;2022-07-29T11:06:17;10.52;;;5.40;;
25045;SDS011;13044;49.304;12.840;2022-07-29T11:11:45;9.43;;;5.22;;
25045;SDS011;13044;49.304;12.840;2022-07-29T11:17:23;11.23;;;5.93;;
25045;SDS011;13044;49.304;12.840;2022-07-29T11:19:51;7.07;;;5.82;;
25045;SDS011;13044;49.304;12.840;2022-07-29T11:22:57;9.00;;;6.03;;
25045;SDS011;13044;49.304;12.840;2022-07-29T11:25:24;8.85;;;5.70;;
25045;SDS011;13044;49.304;12.840;2022-07-29T11:28:19;17.75;;;6.30;;
25045;SDS011;13044;49.304;12.840;2022-07-29T11:30:52;7.85;;;5.85;;
25045;SDS011;13044;49.304;12.840;2022-07-29T11:33:26;9.07;;;6.10;;
25045;SDS011;13044;49.304;12.840;2022-07-29T11:36:17;11.05;;;6.13;;
25045;SDS011;13044;49.304;12.840;2022-07-29T11:38:53;7.32;;;5.50;;
25045;SDS011;13044;49.304;12.840;2022-07-29T11:47:55;6.82;;;5.57;;
25045;SDS011;13044;49.304;12.840;2022-07-29T11:50:44;8.18;;;5.57;;
25045;SDS011;13044;49.304;12.840;2022-07-29T11:53:13;9.32;;;5.32;;
25045;SDS011;13044;49.304;12.840;2022-07-29T11:55:41;7.70;;;5.40;;
25045;SDS011;13044;49.304;12.840;2022-07-29T11:58:20;8.43;;;5.72;;
25045;SDS011;13044;49.304;12.840;2022-07-29T12:00:50;10.70;;;5.68;;
25045;SDS011;13044;49.304;12.840;2022-07-29T12:03:24;7.28;;;5.68;;
25045;SDS011;13044;49.304;12.840;2022-07-29T12:06:02;6.78;;;5.15;;
25045;SDS011;13044;49.304;12.840;2022-07-29T12:08:43;7.93;;;5.50;;
25045;SDS011;13044;49.304;12.840;2022-07-29T12:11:17;10.13;;;5.65;;
25045;SDS011;13044;49.304;12.840;2022-07-29T12:13:48;6.03;;;5.28;;
25045;SDS011;13044;49.304;12.840;2022-07-29T12:16:17;8.75;;;5.72;;
25045;SDS011;13044;49.304;12.840;2022-07-29T12:18:55;6.95;;;5.28;;
25045;SDS011;13044;49.304;12.840;2022-07-29T12:21:24;7.10;;;5.22;;
25045;SDS011;13044;49.304;12.840;2022-07-29T12:23:54;6.95;;;5.28;;
25045;SDS011;13044;49.304;12.840;2022-07-29T12:26:31;6.80;;;5.10;;
25045;SDS011;13044;49.304;12.840;2022-07-29T12:29:01;7.68;;;5.35;;
25045;SDS011;13044;49.304;12.840;2022-07-29T12:31:29;16.95;;;6.05;;
25045;SDS011;13044;49.304;12.840;2022-07-29T12:34:11;7.20;;;5.18;;
25045;SDS011;13044;49.304;12.840;2022-07-29T12:36:40;6.00;;;4.93;;
25045;SDS011;13044;49.304;12.840;2022-07-29T12:39:09;11.18;;;5.30;;
25045;SDS011;13044;49.304;12.840;2022-07-29T12:41:36;6.30;;;4.68;;
25045;SDS011;13044;49.304;12.840;2022-07-29T12:44:04;11.27;;;5.15;;
25045;SDS011;13044;49.304;12.840;2022-07-29T12:46:31;7.15;;;5.30;;
25045;SDS011;13044;49.304;12.840;2022-07-29T12:48:59;6.43;;;5.15;;
25045;SDS011;13044;49.304;12.840;2022-07-29T12:51:33;8.25;;;4.95;;
25045;SDS011;13044;49.304;12.840;2022-07-29T12:54:10;5.90;;;5.30;;
25045;SDS011;13044;49.304;12.840;2022-07-29T12:56:40;5.57;;;5.03;;
25045;SDS011;13044;49.304;12.840;2022-07-29T12:59:14;8.30;;;5.00;;
25045;SDS011;13044;49.304;12.840;2022-07-29T13:01:46;10.18;;;5.63;;
25045;SDS011;13044;49.304;12.840;2022-07-29T13:04:24;8.07;;;5.03;;
25045;SDS011;13044;49.304;12.840;2022-07-29T13:06:58;7.32;;;5.10;;
25045;SDS011;13044;49.304;12.840;2022-07-29T13:09:50;6.82;;;5.35;;
25045;SDS011;13044;49.304;12.840;2022-07-29T13:12:17;8.15;;;5.13;;
25045;SDS011;13044;49.304;12.840;2022-07-29T13:14:45;7.10;;;4.80;;
25045;SDS011;13044;49.304;12.840;2022-07-29T13:17:15;7.60;;;4.95;;
25045;SDS011;13044;49.304;12.840;2022-07-29T13:19:49;6.95;;;5.60;;
25045;SDS011;13044;49.304;12.840;2022-07-29T13:22:24;8.77;;;4.97;;
25045;SDS011;13044;49.304;12.840;2022-07-29T13:24:52;7.07;;;4.70;;
25045;SDS011;13044;49.304;12.840;2022-07-29T13:27:22;6.93;;;5.20;;
25045;SDS011;13044;49.304;12.840;2022-07-29T13:32:26;8.88;;;5.07;;
25045;SDS011;13044;49.304;12.840;2022-07-29T13:34:56;7.78;;;4.85;;
25045;SDS011;13044;49.304;12.840;2022-07-29T13:37:30;5.35;;;4.38;;
25045;SDS011;13044;49.304;12.840;2022-07-29T13:40:00;6.50;;;4.80;;
25045;SDS011;13044;49.304;12.840;2022-07-29T13:42:30;5.50;;;4.75;;
25045;SDS011;13044;49.304;12.840;2022-07-29T13:44:58;8.38;;;4.85;;
25045;SDS011;13044;49.304;12.840;2022-07-29T13:47:25;7.95;;;4.63;;
25045;SDS011;13044;49.304;12.840;2022-07-29T13:49:58;6.15;;;4.68;;
25045;SDS011;13044;49.304;12.840;2022-07-29T13:52:26;7.57;;;5.25;;
25045;SDS011;13044;49.304;12.840;2022-07-29T13:54:53;5.45;;;4.20;;
25045;SDS011;13044;49.304;12.840;2022-07-29T13:57:20;5.50;;;4.45;;
25045;SDS011;13044;49.304;12.840;2022-07-29T13:59:47;7.10;;;4.82;;
25045;SDS011;13044;49.304;12.840;2022-07-29T14:02:19;8.00;;;4.97;;
25045;SDS011;13044;49.304;12.840;2022-07-29T14:04:51;11.10;;;5.20;;
25045;SDS011;13044;49.304;12.840;2022-07-29T14:07:19;11.32;;;5.60;;
25045;SDS011;13044;49.304;12.840;2022-07-29T14:09:47;7.60;;;5.60;;
25045;SDS011;13044;49.304;12.840;2022-07-29T14:12:13;7.40;;;4.80;;
25045;SDS011;13044;49.304;12.840;2022-07-29T14:14:40;6.38;;;5.00;;
25045;SDS011;13044;49.304;12.840;2022-07-29T14:17:08;6.00;;;5.07;;
25045;SDS011;13044;49.304;12.840;2022-07-29T14:19:35;5.40;;;4.60;;
25045;SDS011;13044;49.304;12.840;2022-07-29T14:22:05;5.55;;;4.85;;
25045;SDS011;13044;49.304;12.840;2022-07-29T14:24:36;6.68;;;4.95;;
25045;SDS011;13044;49.304;12.840;2022-07-29T14:27:06;6.18;;;4.65;;
25045;SDS011;13044;49.304;12.840;2022-07-29T14:29:34;8.93;;;4.63;;
25045;SDS011;13044;49.304;12.840;2022-07-29T14:32:07;5.82;;;4.43;;
25045;SDS011;13044;49.304;12.840;2022-07-29T14:34:36;14.10;;;5.38;;
25045;SDS011;13044;49.304;12.840;2022-07-29T14:37:04;5.85;;;4.68;;
25045;SDS011;13044;49.304;12.840;2022-07-29T14:39:32;6.93;;;4.72;;
25045;SDS011;13044;49.304;12.840;2022-07-29T14:42:08;16.92;;;4.82;;
25045;SDS011;13044;49.304;12.840;2022-07-29T14:44:39;9.57;;;4.65;;
25045;SDS011;13044;49.304;12.840;2022-07-29T14:47:07;6.78;;;5.18;;
25045;SDS011;13044;49.304;12.840;2022-07-29T14:49:35;6.93;;;4.93;;
25045;SDS011;13044;49.304;12.840;2022-07-29T14:52:02;9.70;;;5.00;;
25045;SDS011;13044;49.304;12.840;2022-07-29T14:54:29;8.88;;;4.85;;
25045;SDS011;13044;49.304;12.840;2022-07-29T14:56:56;9.68;;;4.55;;
25045;SDS011;13044;49.304;12.840;2022-07-29T14:59:24;7.20;;;4.43;;
25045;SDS011;13044;49.304;12.840;2022-07-29T15:01:52;7.90;;;4.90;;
25045;SDS011;13044;49.304;12.840;2022-07-29T15:04:19;6.40;;;4.55;;
25045;SDS011;13044;49.304;12.840;2022-07-29T15:06:46;8.95;;;5.20;;
25045;SDS011;13044;49.304;12.840;2022-07-29T15:09:13;7.57;;;4.65;;
25045;SDS011;13044;49.304;12.840;2022-07-29T15:11:40;6.28;;;4.97;;
25045;SDS011;13044;49.304;12.840;2022-07-29T15:14:07;6.80;;;4.43;;
25045;SDS011;13044;49.304;12.840;2022-07-29T15:16:37;7.57;;;4.78;;
25045;SDS011;13044;49.304;12.840;2022-07-29T15:19:09;8.15;;;4.75;;
25045;SDS011;13044;49.304;12.840;2022-07-29T15:21:36;11.63;;;4.78;;
25045;SDS011;13044;49.304;12.840;2022-07-29T15:24:13;5.47;;;4.57;;
25045;SDS011;13044;49.304;12.840;2022-07-29T15:26:40;6.38;;;5.03;;
25045;SDS011;13044;49.304;12.840;2022-07-29T15:29:08;9.70;;;5.20;;
25045;SDS011;13044;49.304;12.840;2022-07-29T15:31:35;7.10;;;5.05;;
25045;SDS011;13044;49.304;12.840;2022-07-29T15:34:02;6.13;;;4.88;;